Masonic Park, Colorado
Current Conditions -  °F | °C
As of 5:50 PM on Wednesday 22 Oct 2014 (Local Time) from KRCV Reporting Station
Broken Clouds Broken Clouds  
Wind Chill: 13°   Ceiling: 10000
Heat Index: 13°   Visibility: 10mi
Dew Point:   Wind: 7mph
Humidity: 43%   Direction: 60°ENE
Pressure: 30.24"   Gusts: NA
Location:  37.6617°N, 106.617°W
Report Text: KRCV 222350Z AUTO 06006KT 10SM SCT070 SCT080 BKN100 13/01 A3024 RMK AO2 T01340011 10170 20134
Loading
Personal Weather Stations






























Interactive Weather Map
Tropical Storm Tracking
New forecast layout! Learn more

10-Day Weather Forecast

Advertisements
Track Severe Weather on mobile